Time;durP1;ratioP1;P1;durP2;ratioP2;P2;SDS_P1;SDS_P2;PMS_P1;PMS_P2;Temp;Humidity;BMP_temperature;BMP_pressure;BME280_temperature;BME280_humidity;BME280_pressure;Samples;Min_cycle;Max_cycle;Signal;HPM_P1;HPM_P2
2023/04/09 00:02:16;;;;;;;59.90;32.60;;;;;;;;;;752055;184;626064;-78
2023/04/09 00:04:43;;;;;;;67.57;36.27;;;;;;;;;;764636;183;630552;-78
2023/04/09 00:07:10;;;;;;;68.53;35.30;;;;;;;;;;760606;182;631124;-79
2023/04/09 00:09:36;;;;;;;59.83;35.07;;;;;;;;;;759033;182;623323;-80
2023/04/09 00:12:03;;;;;;;68.33;36.73;;;;;;;;;;768933;181;643199;-79
2023/04/09 00:14:29;;;;;;;60.60;36.77;;;;;;;;;;759436;184;619729;-79
2023/04/09 00:16:55;;;;;;;65.47;35.97;;;;;;;;;;759805;184;635421;-80
2023/04/09 00:19:21;;;;;;;71.60;37.83;;;;;;;;;;768545;181;620222;-77
2023/04/09 00:21:47;;;;;;;68.23;35.73;;;;;;;;;;766338;181;616763;-79
2023/04/09 00:24:13;;;;;;;56.40;35.37;;;;;;;;;;757462;181;629681;-79
2023/04/09 00:26:39;;;;;;;54.37;29.50;;;;;;;;;;757753;183;627501;-79
2023/04/09 00:29:05;;;;;;;56.13;31.25;;;;;;;;;;754432;185;639404;-80
2023/04/09 00:31:31;;;;;;;56.80;32.40;;;;;;;;;;765879;182;651580;-79
2023/04/09 00:33:57;;;;;;;53.10;30.77;;;;;;;;;;757135;184;648194;-79
2023/04/09 00:36:22;;;;;;;54.97;30.07;;;;;;;;;;751894;183;625925;-79
2023/04/09 00:38:48;;;;;;;48.90;29.53;;;;;;;;;;746809;184;630012;-80
2023/04/09 00:41:14;;;;;;;54.60;32.60;;;;;;;;;;765943;181;625846;-80
2023/04/09 00:43:41;;;;;;;65.27;34.10;;;;;;;;;;763826;181;628835;-77
2023/04/09 00:46:06;;;;;;;66.00;36.00;;;;;;;;;;767166;183;624153;-79
2023/04/09 00:48:32;;;;;;;67.97;35.67;;;;;;;;;;754314;184;626716;-77
2023/04/09 00:50:58;;;;;;;59.53;33.17;;;;;;;;;;759537;182;647053;-79
2023/04/09 00:53:24;;;;;;;58.60;32.93;;;;;;;;;;769391;181;642243;-79
2023/04/09 00:55:50;;;;;;;50.57;30.83;;;;;;;;;;755493;185;636212;-79
2023/04/09 00:58:16;;;;;;;66.07;32.70;;;;;;;;;;763080;182;627664;-80
2023/04/09 01:00:43;;;;;;;54.13;32.03;;;;;;;;;;759168;180;640035;-79
2023/04/09 01:03:10;;;;;;;59.33;32.60;;;;;;;;;;770342;182;628885;-80
2023/04/09 01:05:41;;;;;;;67.93;34.60;;;;;;;;;;767330;182;631631;-80
2023/04/09 01:08:12;;;;;;;59.60;34.73;;;;;;;;;;765222;183;647119;-78
2023/04/09 01:10:40;;;;;;;61.27;34.90;;;;;;;;;;764677;181;660676;-79
2023/04/09 01:13:07;;;;;;;63.77;36.27;;;;;;;;;;761234;184;634310;-78
2023/04/09 01:15:33;;;;;;;63.13;35.50;;;;;;;;;;760916;183;636204;-79
2023/04/09 01:17:59;;;;;;;58.47;33.30;;;;;;;;;;766709;181;658042;-78
2023/04/09 01:20:25;;;;;;;59.50;34.80;;;;;;;;;;767261;183;629851;-80
2023/04/09 01:22:58;;;;;;;63.30;35.27;;;;;;;;;;762986;182;645280;-79
2023/04/09 01:25:24;;;;;;;56.30;32.33;;;;;;;;;;764778;182;613178;-79
2023/04/09 01:27:53;;;;;;;55.13;29.30;;;;;;;;;;760708;182;629335;-79
2023/04/09 01:30:19;;;;;;;57.50;34.20;;;;;;;;;;761200;182;625136;-80
2023/04/09 01:32:45;;;;;;;59.10;33.90;;;;;;;;;;747020;185;633458;-78
2023/04/09 01:35:11;;;;;;;61.53;32.73;;;;;;;;;;756831;183;625200;-77
2023/04/09 01:37:36;;;;;;;65.37;35.20;;;;;;;;;;755742;184;642445;-79
2023/04/09 01:40:03;;;;;;;58.73;35.47;;;;;;;;;;765181;181;646805;-79
2023/04/09 01:42:29;;;;;;;63.10;34.30;;;;;;;;;;767577;180;626911;-79
2023/04/09 01:44:54;;;;;;;65.17;35.40;;;;;;;;;;766011;182;642311;-79
2023/04/09 01:47:20;;;;;;;65.67;36.70;;;;;;;;;;768861;181;630471;-80
2023/04/09 01:49:47;;;;;;;59.30;33.17;;;;;;;;;;754992;184;633962;-80
2023/04/09 01:52:13;;;;;;;72.33;36.30;;;;;;;;;;749444;185;635319;-80
2023/04/09 01:54:40;;;;;;;64.30;33.50;;;;;;;;;;764384;181;636313;-80
2023/04/09 01:57:07;;;;;;;84.10;36.13;;;;;;;;;;767888;182;634646;-79
2023/04/09 01:59:33;;;;;;;64.60;35.13;;;;;;;;;;764044;182;634377;-77
2023/04/09 02:02:00;;;;;;;55.30;32.43;;;;;;;;;;756842;184;624930;-80
2023/04/09 02:04:26;;;;;;;66.43;33.40;;;;;;;;;;758951;184;660904;-80
2023/04/09 02:06:53;;;;;;;55.07;30.33;;;;;;;;;;759711;183;630364;-79
2023/04/09 02:09:19;;;;;;;62.37;34.50;;;;;;;;;;761394;181;625234;-79
2023/04/09 02:11:45;;;;;;;54.33;31.30;;;;;;;;;;764669;181;614270;-78
2023/04/09 02:14:10;;;;;;;61.67;34.20;;;;;;;;;;762141;182;629870;-79
2023/04/09 02:16:36;;;;;;;61.13;33.27;;;;;;;;;;757040;184;634337;-79
2023/04/09 02:19:02;;;;;;;58.87;32.73;;;;;;;;;;765629;184;634954;-79
2023/04/09 02:21:28;;;;;;;60.23;33.00;;;;;;;;;;754613;183;619196;-78
2023/04/09 02:23:55;;;;;;;64.83;35.57;;;;;;;;;;761268;183;627151;-79
2023/04/09 02:26:21;;;;;;;60.87;34.93;;;;;;;;;;761445;183;640398;-78
2023/04/09 02:28:46;;;;;;;61.57;34.93;;;;;;;;;;752479;188;624257;-79
2023/04/09 02:31:12;;;;;;;60.83;34.07;;;;;;;;;;759552;183;634915;-79
2023/04/09 02:33:38;;;;;;;62.30;34.30;;;;;;;;;;761960;181;688390;-79
2023/04/09 02:36:04;;;;;;;58.13;34.10;;;;;;;;;;768129;181;623652;-79
2023/04/09 02:38:30;;;;;;;60.80;34.03;;;;;;;;;;752608;185;631454;-78
2023/04/09 02:40:56;;;;;;;63.10;36.10;;;;;;;;;;767128;181;614043;-78
2023/04/09 02:43:22;;;;;;;59.27;32.80;;;;;;;;;;767043;183;631520;-80
2023/04/09 02:45:48;;;;;;;52.67;32.73;;;;;;;;;;755758;183;628041;-79
2023/04/09 02:48:13;;;;;;;58.80;35.27;;;;;;;;;;764999;181;616647;-79
2023/04/09 02:50:39;;;;;;;48.33;29.93;;;;;;;;;;751827;183;632555;-79
2023/04/09 02:53:05;;;;;;;50.27;30.53;;;;;;;;;;761680;185;636669;-79
2023/04/09 02:55:31;;;;;;;58.93;30.80;;;;;;;;;;762459;182;625428;-79
2023/04/09 02:57:57;;;;;;;51.47;30.83;;;;;;;;;;762046;182;631203;-79
2023/04/09 03:00:23;;;;;;;57.67;30.97;;;;;;;;;;760186;184;621236;-79
2023/04/09 03:02:48;;;;;;;50.67;29.30;;;;;;;;;;761790;183;632883;-79
2023/04/09 03:05:14;;;;;;;51.97;29.60;;;;;;;;;;761398;185;629909;-79
2023/04/09 03:07:40;;;;;;;56.53;31.23;;;;;;;;;;766289;183;636040;-79
2023/04/09 03:10:06;;;;;;;48.83;25.93;;;;;;;;;;767505;182;629364;-79
2023/04/09 03:12:32;;;;;;;44.70;26.63;;;;;;;;;;757056;184;631302;-78
2023/04/09 03:14:58;;;;;;;53.07;27.73;;;;;;;;;;769683;181;640635;-78
2023/04/09 03:17:25;;;;;;;52.10;28.87;;;;;;;;;;749714;182;653468;-79
2023/04/09 03:19:49;;;;;;;43.80;27.30;;;;;;;;;;759137;181;679413;-77
2023/04/09 03:22:15;;;;;;;47.80;26.70;;;;;;;;;;768914;181;633423;-79
2023/04/09 03:24:41;;;;;;;40.87;24.97;;;;;;;;;;765082;181;627924;-79
2023/04/09 03:27:07;;;;;;;50.53;27.13;;;;;;;;;;760300;183;622781;-79
2023/04/09 03:29:33;;;;;;;43.57;26.67;;;;;;;;;;758771;182;620033;-77
2023/04/09 03:31:59;;;;;;;50.77;28.00;;;;;;;;;;765972;184;633782;-78
2023/04/09 03:34:25;;;;;;;52.50;30.37;;;;;;;;;;763673;182;692431;-78
2023/04/09 03:36:50;;;;;;;45.90;27.60;;;;;;;;;;761744;184;616701;-79
2023/04/09 03:39:16;;;;;;;49.50;28.53;;;;;;;;;;765669;181;646107;-78
2023/04/09 03:41:42;;;;;;;45.50;28.30;;;;;;;;;;758490;183;620573;-79
2023/04/09 03:44:08;;;;;;;61.13;33.73;;;;;;;;;;764076;181;634858;-80
2023/04/09 03:46:34;;;;;;;64.27;33.53;;;;;;;;;;766826;181;654537;-79
2023/04/09 03:49:00;;;;;;;60.83;31.83;;;;;;;;;;768893;182;647842;-80
2023/04/09 03:51:26;;;;;;;60.00;30.37;;;;;;;;;;762970;182;667147;-77
2023/04/09 03:53:51;;;;;;;63.90;36.30;;;;;;;;;;763866;181;650394;-79
2023/04/09 03:56:17;;;;;;;64.40;35.80;;;;;;;;;;769787;181;641847;-80
2023/04/09 03:58:43;;;;;;;65.43;36.50;;;;;;;;;;759369;181;665492;-79
2023/04/09 04:01:09;;;;;;;70.87;37.17;;;;;;;;;;765935;181;735829;-80
2023/04/09 04:03:36;;;;;;;62.17;35.10;;;;;;;;;;766117;181;632843;-79
2023/04/09 04:06:02;;;;;;;66.45;33.80;;;;;;;;;;756214;184;1108111;-78
2023/04/09 04:08:28;;;;;;;60.10;33.50;;;;;;;;;;762729;182;637514;-79
2023/04/09 04:10:54;;;;;;;63.77;34.97;;;;;;;;;;764076;183;653875;-77
2023/04/09 04:13:20;;;;;;;63.37;34.07;;;;;;;;;;765480;182;644558;-77
2023/04/09 04:15:46;;;;;;;72.10;35.50;;;;;;;;;;763877;182;716154;-77
2023/04/09 04:18:12;;;;;;;63.60;32.67;;;;;;;;;;752170;184;935088;-77
2023/04/09 04:20:38;;;;;;;62.93;36.10;;;;;;;;;;765266;179;975306;-79
2023/04/09 04:23:04;;;;;;;59.60;32.22;;;;;;;;;;764184;182;702782;-78
2023/04/09 04:25:30;;;;;;;68.43;36.33;;;;;;;;;;754219;184;710624;-80
2023/04/09 04:27:56;;;;;;;70.23;40.40;;;;;;;;;;766858;182;634107;-79
2023/04/09 04:30:21;;;;;;;61.80;36.73;;;;;;;;;;764902;183;642782;-79
2023/04/09 04:32:47;;;;;;;60.00;34.47;;;;;;;;;;765905;183;648863;-77
2023/04/09 04:35:13;;;;;;;67.80;37.30;;;;;;;;;;758187;182;626189;-79
2023/04/09 04:37:39;;;;;;;68.07;37.50;;;;;;;;;;765170;182;631443;-80
2023/04/09 04:40:05;;;;;;;69.23;34.87;;;;;;;;;;755354;182;654112;-79
2023/04/09 04:42:31;;;;;;;93.90;49.47;;;;;;;;;;755317;182;630113;-80
2023/04/09 04:44:57;;;;;;;78.30;37.63;;;;;;;;;;763785;182;630461;-79
2023/04/09 04:47:23;;;;;;;70.03;39.10;;;;;;;;;;754954;184;647004;-78
2023/04/09 04:49:49;;;;;;;81.03;40.70;;;;;;;;;;760554;182;744743;-78
2023/04/09 04:52:15;;;;;;;79.17;40.60;;;;;;;;;;769647;182;719342;-78
2023/04/09 04:54:40;;;;;;;72.40;36.33;;;;;;;;;;763426;180;649274;-78
2023/04/09 04:57:06;;;;;;;87.53;44.00;;;;;;;;;;761614;181;831275;-78
2023/04/09 04:59:32;;;;;;;76.30;39.07;;;;;;;;;;763549;182;895710;-79
2023/04/09 05:01:58;;;;;;;74.20;38.70;;;;;;;;;;768194;182;793392;-79
2023/04/09 05:04:25;;;;;;;79.17;39.27;;;;;;;;;;763301;181;828756;-78
2023/04/09 05:06:51;;;;;;;72.40;38.15;;;;;;;;;;762665;180;892479;-78
2023/04/09 05:09:17;;;;;;;107.43;54.90;;;;;;;;;;766302;182;797920;-78
2023/04/09 05:11:43;;;;;;;119.30;53.40;;;;;;;;;;763009;181;787324;-78
2023/04/09 05:14:11;;;;;;;81.50;44.20;;;;;;;;;;762989;180;691752;-76
2023/04/09 05:16:37;;;;;;;80.70;38.77;;;;;;;;;;764741;182;629522;-79
2023/04/09 05:19:03;;;;;;;68.50;38.13;;;;;;;;;;759595;183;658927;-77
2023/04/09 05:21:28;;;;;;;77.90;41.17;;;;;;;;;;762483;183;629938;-78
2023/04/09 05:23:54;;;;;;;74.53;40.73;;;;;;;;;;761859;183;619372;-78
2023/04/09 05:26:20;;;;;;;87.07;43.10;;;;;;;;;;764689;181;659723;-80
2023/04/09 05:28:46;;;;;;;87.77;42.17;;;;;;;;;;765278;182;677870;-79
2023/04/09 05:31:14;;;;;;;84.23;43.60;;;;;;;;;;766907;181;801642;-77
2023/04/09 05:33:38;;;;;;;128.43;63.80;;;;;;;;;;762608;184;902143;-79
2023/04/09 05:36:04;;;;;;;64.07;34.85;;;;;;;;;;762702;181;795127;-79
2023/04/09 05:38:30;;;;;;;83.70;40.10;;;;;;;;;;765811;181;788736;-77
2023/04/09 05:40:56;;;;;;;77.60;40.23;;;;;;;;;;753107;186;752465;-78
2023/04/09 05:43:22;;;;;;;83.77;43.83;;;;;;;;;;761912;183;649472;-78
2023/04/09 05:45:47;;;;;;;70.10;38.55;;;;;;;;;;759604;182;632397;-78
2023/04/09 05:48:13;;;;;;;85.47;43.67;;;;;;;;;;762950;180;651692;-79
2023/04/09 05:50:39;;;;;;;80.13;38.43;;;;;;;;;;750282;186;634960;-79
2023/04/09 05:53:05;;;;;;;67.40;39.20;;;;;;;;;;749749;185;630837;-79
2023/04/09 05:55:31;;;;;;;71.30;36.60;;;;;;;;;;758540;183;633848;-80
2023/04/09 05:57:57;;;;;;;64.33;33.90;;;;;;;;;;764119;182;631317;-78
2023/04/09 06:00:23;;;;;;;65.53;36.03;;;;;;;;;;753313;185;629467;-78
2023/04/09 06:02:48;;;;;;;67.20;36.60;;;;;;;;;;756852;185;729246;-80
2023/04/09 06:05:14;;;;;;;74.70;43.20;;;;;;;;;;760903;183;622306;-81
2023/04/09 06:07:40;;;;;;;66.10;34.30;;;;;;;;;;766566;179;614114;-80
2023/04/09 06:10:06;;;;;;;61.13;35.23;;;;;;;;;;766189;180;657896;-79
2023/04/09 06:12:33;;;;;;;61.10;38.03;;;;;;;;;;767028;181;639873;-79
2023/04/09 06:14:59;;;;;;;67.37;40.13;;;;;;;;;;752138;180;638526;-80
2023/04/09 06:17:25;;;;;;;51.40;29.67;;;;;;;;;;749116;184;1521639;-79
2023/04/09 06:19:51;;;;;;;65.30;37.50;;;;;;;;;;765755;181;638420;-77
2023/04/09 06:22:17;;;;;;;73.03;45.73;;;;;;;;;;756869;183;652504;-79
2023/04/09 06:24:42;;;;;;;50.20;32.50;;;;;;;;;;760202;182;652128;-79
2023/04/09 06:27:08;;;;;;;49.83;34.60;;;;;;;;;;769442;180;623559;-79
2023/04/09 06:29:34;;;;;;;51.43;29.87;;;;;;;;;;772560;180;629303;-78
2023/04/09 06:32:00;;;;;;;78.77;42.47;;;;;;;;;;755305;184;634360;-79
2023/04/09 06:34:26;;;;;;;109.33;52.60;;;;;;;;;;763295;182;637331;-78
2023/04/09 06:36:52;;;;;;;160.83;71.10;;;;;;;;;;770411;181;631944;-78
2023/04/09 06:39:18;;;;;;;122.33;63.63;;;;;;;;;;765768;182;636068;-80
2023/04/09 06:41:43;;;;;;;80.80;46.13;;;;;;;;;;762516;182;624818;-78
2023/04/09 06:44:10;;;;;;;48.57;30.43;;;;;;;;;;758582;183;627773;-79
2023/04/09 06:46:35;;;;;;;53.07;29.50;;;;;;;;;;764134;182;627004;-79
2023/04/09 06:49:04;;;;;;;66.23;34.50;;;;;;;;;;762344;183;628410;-78
2023/04/09 06:51:30;;;;;;;54.45;30.48;;;;;;;;;;763682;181;809210;-79
2023/04/09 06:53:56;;;;;;;42.33;22.90;;;;;;;;;;766321;180;635177;-79
2023/04/09 06:56:22;;;;;;;41.43;22.93;;;;;;;;;;758754;181;1333377;-78
2023/04/09 06:58:48;;;;;;;52.27;27.87;;;;;;;;;;764642;182;676765;-78
2023/04/09 07:01:15;;;;;;;48.20;30.13;;;;;;;;;;765187;182;702904;-79
2023/04/09 07:03:39;;;;;;;40.37;28.40;;;;;;;;;;763028;182;633425;-79
2023/04/09 07:06:05;;;;;;;47.87;29.73;;;;;;;;;;758727;183;635874;-79
2023/04/09 07:08:31;;;;;;;125.77;88.00;;;;;;;;;;759785;182;661118;-81
2023/04/09 07:10:57;;;;;;;62.93;44.10;;;;;;;;;;765823;182;617481;-80
2023/04/09 07:13:23;;;;;;;47.53;27.67;;;;;;;;;;764963;179;629858;-79
2023/04/09 07:15:49;;;;;;;46.87;28.57;;;;;;;;;;765068;180;622136;-78
2023/04/09 07:18:14;;;;;;;50.77;29.60;;;;;;;;;;769246;182;626624;-80
2023/04/09 07:20:40;;;;;;;48.57;30.83;;;;;;;;;;763900;182;624490;-79
2023/04/09 07:23:06;;;;;;;49.08;31.20;;;;;;;;;;761108;182;635409;-85
2023/04/09 07:25:32;;;;;;;51.00;29.43;;;;;;;;;;769039;181;633146;-79
2023/04/09 07:27:58;;;;;;;48.67;28.63;;;;;;;;;;766939;181;638968;-78
2023/04/09 07:30:24;;;;;;;35.27;22.70;;;;;;;;;;765415;182;637059;-79
2023/04/09 07:32:50;;;;;;;45.07;30.27;;;;;;;;;;763692;183;632822;-79
2023/04/09 07:35:17;;;;;;;44.80;28.40;;;;;;;;;;765585;182;633536;-79
2023/04/09 07:37:42;;;;;;;42.23;25.10;;;;;;;;;;759369;182;725329;-80
2023/04/09 07:40:08;;;;;;;40.22;25.05;;;;;;;;;;763837;181;634730;-80
2023/04/09 07:42:33;;;;;;;49.20;33.13;;;;;;;;;;763650;181;622839;-80
2023/04/09 07:44:59;;;;;;;38.40;22.67;;;;;;;;;;762283;181;639296;-79
2023/04/09 07:47:25;;;;;;;48.53;28.90;;;;;;;;;;755986;184;625123;-79
2023/04/09 07:49:51;;;;;;;35.83;19.33;;;;;;;;;;767879;180;629119;-80
2023/04/09 07:52:18;;;;;;;47.97;29.83;;;;;;;;;;765412;180;634804;-80
2023/04/09 07:54:43;;;;;;;35.60;23.10;;;;;;;;;;765531;182;642321;-80
2023/04/09 07:57:09;;;;;;;46.60;27.57;;;;;;;;;;747544;182;633539;-79
2023/04/09 07:59:35;;;;;;;45.70;30.97;;;;;;;;;;766646;182;629597;-79
2023/04/09 08:02:00;;;;;;;45.37;29.10;;;;;;;;;;751348;184;623794;-78
2023/04/09 08:04:26;;;;;;;40.37;28.60;;;;;;;;;;752303;185;625727;-78
2023/04/09 08:06:52;;;;;;;35.80;23.50;;;;;;;;;;761970;182;628602;-80
2023/04/09 08:09:18;;;;;;;29.73;19.20;;;;;;;;;;770568;179;619654;-80
2023/04/09 08:11:44;;;;;;;37.23;21.73;;;;;;;;;;756197;182;628088;-80
2023/04/09 08:14:12;;;;;;;39.27;23.40;;;;;;;;;;763037;182;613692;-79
2023/04/09 08:16:40;;;;;;;29.47;20.53;;;;;;;;;;755247;183;656017;-79
2023/04/09 08:19:05;;;;;;;39.43;23.70;;;;;;;;;;781025;179;616073;-80
2023/04/09 08:21:31;;;;;;;30.63;20.70;;;;;;;;;;764500;183;632689;-79
2023/04/09 08:24:03;;;;;;;29.90;19.63;;;;;;;;;;763582;183;638237;-80
2023/04/09 08:26:23;;;;;;;29.73;16.33;;;;;;;;;;759783;183;625017;-80
2023/04/09 08:28:50;;;;;;;34.43;24.00;;;;;;;;;;759047;185;637093;-80
2023/04/09 08:31:15;;;;;;;42.23;26.53;;;;;;;;;;758707;183;619499;-80
2023/04/09 08:33:41;;;;;;;32.50;22.37;;;;;;;;;;754946;182;624597;-80
2023/04/09 08:36:07;;;;;;;33.27;23.80;;;;;;;;;;752251;182;651778;-80
2023/04/09 08:38:33;;;;;;;30.50;21.40;;;;;;;;;;761696;182;629139;-79
2023/04/09 08:40:59;;;;;;;32.10;23.57;;;;;;;;;;762100;183;646687;-80
2023/04/09 08:43:25;;;;;;;38.60;24.90;;;;;;;;;;764216;181;661087;-79
2023/04/09 08:45:52;;;;;;;29.60;19.70;;;;;;;;;;757045;180;643973;-79
2023/04/09 08:48:17;;;;;;;31.60;21.17;;;;;;;;;;767417;182;634410;-78
2023/04/09 08:50:45;;;;;;;28.03;20.97;;;;;;;;;;754879;182;629248;-78
2023/04/09 08:53:08;;;;;;;36.73;22.70;;;;;;;;;;763101;182;650726;-78
2023/04/09 08:55:36;;;;;;;22.97;16.27;;;;;;;;;;771930;180;637712;-80
2023/04/09 08:58:00;;;;;;;33.67;25.83;;;;;;;;;;757411;182;640226;-82
2023/04/09 09:00:26;;;;;;;33.47;23.70;;;;;;;;;;762479;181;632039;-81
2023/04/09 09:03:07;;;;;;;30.93;17.73;;;;;;;;;;764509;183;655491;-80
2023/04/09 09:05:35;;;;;;;30.87;23.50;;;;;;;;;;760718;184;625698;-80
2023/04/09 09:08:01;;;;;;;31.53;18.63;;;;;;;;;;760431;184;636791;-78
2023/04/09 09:10:36;;;;;;;25.85;15.32;;;;;;;;;;749614;184;645853;-80
2023/04/09 09:13:02;;;;;;;18.00;13.50;;;;;;;;;;763183;181;627922;-79
2023/04/09 09:15:28;;;;;;;26.03;18.23;;;;;;;;;;763472;181;634431;-80
2023/04/09 09:17:55;;;;;;;27.33;19.13;;;;;;;;;;767015;180;635118;-79
2023/04/09 09:20:21;;;;;;;25.00;16.67;;;;;;;;;;763301;180;669767;-79
2023/04/09 09:22:48;;;;;;;35.63;21.23;;;;;;;;;;762723;179;707695;-81
2023/04/09 09:25:14;;;;;;;36.20;20.13;;;;;;;;;;772420;179;674591;-81
2023/04/09 09:27:39;;;;;;;32.63;18.00;;;;;;;;;;750950;186;627535;-79
2023/04/09 09:30:06;;;;;;;31.57;22.90;;;;;;;;;;754494;182;648871;-79
2023/04/09 09:32:32;;;;;;;30.33;22.10;;;;;;;;;;758721;182;630404;-78
2023/04/09 09:34:59;;;;;;;27.60;16.70;;;;;;;;;;754905;184;649463;-79
2023/04/09 09:37:25;;;;;;;26.33;17.57;;;;;;;;;;750520;182;644593;-80
2023/04/09 09:39:51;;;;;;;28.70;18.27;;;;;;;;;;764424;182;633344;-81
2023/04/09 09:42:16;;;;;;;25.00;17.37;;;;;;;;;;762704;181;633982;-80
2023/04/09 09:44:42;;;;;;;22.40;12.60;;;;;;;;;;755745;181;644634;-80
2023/04/09 09:47:08;;;;;;;19.53;14.40;;;;;;;;;;764120;182;634092;-78
2023/04/09 09:49:34;;;;;;;21.37;14.40;;;;;;;;;;768721;183;627430;-80
2023/04/09 09:52:01;;;;;;;26.23;19.70;;;;;;;;;;764285;182;648584;-79
2023/04/09 09:54:26;;;;;;;24.70;18.40;;;;;;;;;;761413;181;736143;-81
2023/04/09 09:56:52;;;;;;;28.10;20.27;;;;;;;;;;765979;181;658800;-80
2023/04/09 09:59:21;;;;;;;27.37;18.93;;;;;;;;;;762502;181;630842;-81
2023/04/09 10:01:47;;;;;;;23.60;19.00;;;;;;;;;;762104;182;709986;-81
2023/04/09 10:04:13;;;;;;;26.47;19.20;;;;;;;;;;761090;181;645088;-81
2023/04/09 10:06:40;;;;;;;28.30;20.63;;;;;;;;;;759764;184;622183;-81
2023/04/09 10:09:05;;;;;;;27.87;18.57;;;;;;;;;;762883;181;654034;-81
2023/04/09 10:11:31;;;;;;;23.57;15.33;;;;;;;;;;761780;181;628832;-78
2023/04/09 10:13:58;;;;;;;19.07;12.53;;;;;;;;;;765730;181;784752;-81
2023/04/09 10:16:24;;;;;;;27.93;19.00;;;;;;;;;;755657;182;646532;-82
2023/04/09 10:18:50;;;;;;;24.73;17.63;;;;;;;;;;759629;183;639715;-81
2023/04/09 10:21:16;;;;;;;22.30;16.27;;;;;;;;;;761907;182;657791;-81
2023/04/09 10:23:41;;;;;;;23.53;15.50;;;;;;;;;;759182;182;633378;-80
2023/04/09 10:26:07;;;;;;;25.63;19.17;;;;;;;;;;758446;181;657138;-81
2023/04/09 10:28:33;;;;;;;23.33;15.87;;;;;;;;;;760784;181;631991;-78
2023/04/09 10:30:59;;;;;;;22.87;18.80;;;;;;;;;;768049;183;683287;-81
2023/04/09 10:33:26;;;;;;;24.63;16.30;;;;;;;;;;760559;184;629588;-80
2023/04/09 10:35:52;;;;;;;24.57;17.53;;;;;;;;;;754459;184;634887;-79
2023/04/09 10:38:17;;;;;;;23.20;17.27;;;;;;;;;;769632;181;623178;-80
2023/04/09 10:40:46;;;;;;;23.77;16.33;;;;;;;;;;749732;185;649618;-79
2023/04/09 10:43:12;;;;;;;23.87;18.20;;;;;;;;;;763382;182;625727;-77
2023/04/09 10:45:38;;;;;;;22.10;16.30;;;;;;;;;;767702;181;640416;-80
2023/04/09 10:48:04;;;;;;;21.80;16.10;;;;;;;;;;759731;181;635381;-79
2023/04/09 10:50:31;;;;;;;24.03;15.77;;;;;;;;;;752200;184;628810;-79
2023/04/09 10:52:57;;;;;;;19.10;15.97;;;;;;;;;;765025;181;629307;-78
2023/04/09 10:55:27;;;;;;;17.10;13.20;;;;;;;;;;770061;183;611990;-78
2023/04/09 10:57:53;;;;;;;24.93;20.17;;;;;;;;;;765611;181;652182;-78
2023/04/09 11:00:19;;;;;;;26.30;17.90;;;;;;;;;;755160;186;634415;-78
2023/04/09 11:02:45;;;;;;;23.37;18.13;;;;;;;;;;768343;183;634641;-79
2023/04/09 11:05:26;;;;;;;23.53;17.87;;;;;;;;;;761826;181;637982;-77
2023/04/09 11:07:52;;;;;;;24.33;19.27;;;;;;;;;;759396;180;642415;-78
2023/04/09 11:10:18;;;;;;;27.00;17.40;;;;;;;;;;756622;182;639617;-80
2023/04/09 11:12:44;;;;;;;26.67;18.23;;;;;;;;;;765430;182;623531;-81
2023/04/09 11:15:10;;;;;;;23.53;17.10;;;;;;;;;;772421;179;778461;-80
2023/04/09 11:17:36;;;;;;;23.43;16.03;;;;;;;;;;762566;184;634009;-78
2023/04/09 11:20:01;;;;;;;20.97;17.70;;;;;;;;;;755819;182;913733;-79
2023/04/09 11:22:27;;;;;;;23.80;18.50;;;;;;;;;;761296;183;619461;-81
2023/04/09 11:24:53;;;;;;;24.47;19.73;;;;;;;;;;759099;182;635210;-79
2023/04/09 11:27:20;;;;;;;25.87;18.97;;;;;;;;;;756377;182;621703;-79
2023/04/09 11:29:45;;;;;;;22.23;14.80;;;;;;;;;;764589;183;616426;-79
2023/04/09 11:32:11;;;;;;;22.23;17.30;;;;;;;;;;755506;182;644433;-81
2023/04/09 11:34:37;;;;;;;28.10;17.10;;;;;;;;;;753808;185;642121;-80
2023/04/09 11:37:05;;;;;;;28.47;19.63;;;;;;;;;;756694;182;621238;-79
2023/04/09 11:39:28;;;;;;;23.00;17.00;;;;;;;;;;753504;180;625699;-78
2023/04/09 11:41:54;;;;;;;25.13;17.23;;;;;;;;;;767293;181;716057;-80
2023/04/09 11:44:21;;;;;;;24.27;18.37;;;;;;;;;;756656;183;691458;-80
2023/04/09 11:46:46;;;;;;;25.83;18.10;;;;;;;;;;761436;182;622465;-80
2023/04/09 11:49:12;;;;;;;18.67;13.20;;;;;;;;;;766817;180;639497;-80
2023/04/09 11:51:38;;;;;;;23.97;17.60;;;;;;;;;;760199;180;815593;-80
2023/04/09 11:54:05;;;;;;;25.47;18.53;;;;;;;;;;768094;181;638965;-81
2023/04/09 11:56:31;;;;;;;25.87;18.73;;;;;;;;;;765208;182;632832;-80
2023/04/09 11:58:56;;;;;;;25.93;19.17;;;;;;;;;;763712;180;624806;-80
2023/04/09 12:01:22;;;;;;;30.43;21.87;;;;;;;;;;766501;181;901104;-78
2023/04/09 12:03:52;;;;;;;31.07;21.20;;;;;;;;;;763449;182;640179;-81
2023/04/09 12:06:18;;;;;;;33.37;23.20;;;;;;;;;;762131;181;637494;-78
2023/04/09 12:08:44;;;;;;;32.27;23.57;;;;;;;;;;763327;180;638678;-79
2023/04/09 12:11:10;;;;;;;27.00;19.43;;;;;;;;;;756405;180;645410;-79
2023/04/09 12:13:35;;;;;;;25.17;17.87;;;;;;;;;;757204;182;620559;-79
2023/04/09 12:16:02;;;;;;;25.10;16.63;;;;;;;;;;754388;182;624238;-78
2023/04/09 12:18:27;;;;;;;31.87;21.50;;;;;;;;;;767107;181;626117;-79
2023/04/09 12:20:53;;;;;;;25.70;17.77;;;;;;;;;;756405;182;800372;-78
2023/04/09 12:23:19;;;;;;;21.57;16.10;;;;;;;;;;756773;181;632233;-78
2023/04/09 12:25:46;;;;;;;36.50;21.20;;;;;;;;;;760820;180;1103520;-80
2023/04/09 12:28:11;;;;;;;27.63;20.43;;;;;;;;;;760004;182;708918;-77
2023/04/09 12:30:37;;;;;;;30.83;20.33;;;;;;;;;;760174;182;631254;-79
2023/04/09 12:33:03;;;;;;;43.73;27.87;;;;;;;;;;756854;182;757752;-79
2023/04/09 12:35:28;;;;;;;33.90;25.20;;;;;;;;;;761704;182;653502;-78
2023/04/09 12:37:54;;;;;;;34.83;27.20;;;;;;;;;;755224;182;675438;-78
2023/04/09 12:40:20;;;;;;;31.02;24.63;;;;;;;;;;756087;182;767598;-77
2023/04/09 12:42:46;;;;;;;28.20;17.90;;;;;;;;;;766408;183;639923;-78
2023/04/09 12:45:12;;;;;;;28.50;20.10;;;;;;;;;;757336;183;666950;-80
2023/04/09 12:47:39;;;;;;;21.70;11.67;;;;;;;;;;751090;182;633408;-78
2023/04/09 12:50:05;;;;;;;28.20;18.30;;;;;;;;;;755723;182;616516;-79
2023/04/09 12:52:31;;;;;;;25.03;17.67;;;;;;;;;;765333;182;619939;-80
2023/04/09 12:54:57;;;;;;;23.50;16.67;;;;;;;;;;758951;182;668633;-79
2023/04/09 12:57:23;;;;;;;26.80;21.07;;;;;;;;;;759635;182;633534;-81
2023/04/09 12:59:49;;;;;;;28.30;17.33;;;;;;;;;;765176;181;630390;-79
2023/04/09 13:02:15;;;;;;;26.60;19.40;;;;;;;;;;766889;181;629543;-82
2023/04/09 13:04:41;;;;;;;28.77;20.90;;;;;;;;;;762308;181;624620;-80
2023/04/09 13:07:06;;;;;;;29.53;22.87;;;;;;;;;;769803;182;628786;-81
2023/04/09 13:09:34;;;;;;;28.43;22.10;;;;;;;;;;765328;181;630158;-78
2023/04/09 13:11:58;;;;;;;29.80;24.60;;;;;;;;;;756920;183;633006;-80
2023/04/09 13:14:24;;;;;;;29.23;23.80;;;;;;;;;;762836;184;632496;-79
2023/04/09 13:16:51;;;;;;;26.67;18.80;;;;;;;;;;758795;182;630553;-80
2023/04/09 13:19:16;;;;;;;19.23;15.20;;;;;;;;;;762994;181;636458;-80
2023/04/09 13:21:42;;;;;;;37.97;21.53;;;;;;;;;;764571;181;671023;-80
2023/04/09 13:24:07;;;;;;;28.77;20.63;;;;;;;;;;766847;182;627225;-79
2023/04/09 13:26:33;;;;;;;31.63;23.77;;;;;;;;;;749606;184;651164;-80
2023/04/09 13:29:00;;;;;;;32.63;22.60;;;;;;;;;;759063;182;631996;-80
2023/04/09 13:31:25;;;;;;;25.17;14.10;;;;;;;;;;759459;182;646911;-79
2023/04/09 13:33:51;;;;;;;27.60;16.93;;;;;;;;;;761628;182;640502;-80
2023/04/09 13:36:17;;;;;;;23.50;15.93;;;;;;;;;;752400;182;678472;-78
2023/04/09 13:38:42;;;;;;;25.40;17.47;;;;;;;;;;758021;182;629069;-80
2023/04/09 13:41:08;;;;;;;33.00;22.80;;;;;;;;;;752055;182;688335;-78
2023/04/09 13:43:34;;;;;;;34.20;21.90;;;;;;;;;;752289;182;657668;-78
2023/04/09 13:46:00;;;;;;;29.17;21.00;;;;;;;;;;758431;182;696303;-80
2023/04/09 13:48:26;;;;;;;28.57;19.10;;;;;;;;;;758465;185;632976;-78
2023/04/09 13:50:52;;;;;;;25.07;20.07;;;;;;;;;;751778;182;988731;-77
2023/04/09 13:53:18;;;;;;;31.20;18.93;;;;;;;;;;764943;182;664365;-78
2023/04/09 13:55:44;;;;;;;17.37;10.67;;;;;;;;;;764855;183;623492;-79
2023/04/09 13:58:10;;;;;;;31.93;20.23;;;;;;;;;;756888;181;640740;-79